createdAt,value
2019-02-02T00:00:24.092Z,21.00
2019-02-02T00:02:32.310Z,13.71
2019-02-02T00:04:35.156Z,17.50
2019-02-02T00:06:43.136Z,14.71
2019-02-02T00:08:47.631Z,13.00
2019-02-02T00:10:56.473Z,15.18
2019-02-02T00:13:04.523Z,13.71
2019-02-02T00:15:11.867Z,11.50
2019-02-02T00:17:17.165Z,13.57
2019-02-02T00:19:25.964Z,15.09
2019-02-02T00:21:30.679Z,12.50
2019-02-02T00:23:35.319Z,10.00
2019-02-02T00:25:42.398Z,9.67
2019-02-02T00:27:46.062Z,9.33
2019-02-02T00:29:54.121Z,10.50
2019-02-02T00:32:00.286Z,8.50
2019-02-02T00:34:07.262Z,12.29
2019-02-02T00:36:15.187Z,13.00
2019-02-02T00:38:22.146Z,13.00
2019-02-02T00:40:25.775Z,10.00
2019-02-02T00:42:30.196Z,10.57
2019-02-02T00:44:33.889Z,10.83
2019-02-02T00:46:40.930Z,7.33
2019-02-02T00:48:44.587Z,7.00
2019-02-02T00:50:49.091Z,12.00
2019-02-02T00:52:57.030Z,12.71
2019-02-02T00:55:05.817Z,12.00
2019-02-02T00:57:13.788Z,13.29
2019-02-02T00:59:19.272Z,14.00
2019-02-02T01:01:26.419Z,17.00
2019-02-02T01:03:31.998Z,23.00
2019-02-02T01:05:36.725Z,19.29
2019-02-02T01:07:40.552Z,18.20
2019-02-02T01:09:45.007Z,16.00
2019-02-02T01:11:48.771Z,17.80
2019-02-02T01:13:56.835Z,16.00
2019-02-02T01:16:05.566Z,14.29
2019-02-02T01:18:14.134Z,15.00
2019-02-02T01:20:20.019Z,17.00
2019-02-02T01:22:25.755Z,12.29
2019-02-02T01:24:31.053Z,13.75
2019-02-02T01:26:37.342Z,17.00
2019-02-02T01:28:42.131Z,13.33
2019-02-02T01:30:47.593Z,14.43
2019-02-02T01:32:56.184Z,15.20
2019-02-02T01:35:05.550Z,13.29
2019-02-02T01:37:10.319Z,11.86
2019-02-02T01:39:14.967Z,10.00
2019-02-02T01:41:22.138Z,11.43
2019-02-02T01:43:29.091Z,10.00
2019-02-02T01:45:37.023Z,12.00
2019-02-02T01:47:45.734Z,10.00
2019-02-02T01:49:52.622Z,10.00
2019-02-02T01:51:56.350Z,10.33
2019-02-02T01:54:02.530Z,10.00
2019-02-02T01:56:10.422Z,11.29
2019-02-02T01:58:16.800Z,10.17
2019-02-02T02:00:22.650Z,11.00
2019-02-02T02:02:30.970Z,11.14
2019-02-02T02:04:35.618Z,10.00
2019-02-02T02:06:40.262Z,10.57
2019-02-02T02:08:44.008Z,10.50
2019-02-02T02:10:50.922Z,8.33
2019-02-02T02:12:58.086Z,9.83
2019-02-02T02:15:01.754Z,10.00
2019-02-02T02:17:07.100Z,9.67
2019-02-02T02:19:14.259Z,9.00
2019-02-02T02:21:21.258Z,9.00
2019-02-02T02:23:28.289Z,9.67
2019-02-02T02:25:32.134Z,9.67
2019-02-02T02:27:39.247Z,15.29
2019-02-02T02:29:46.170Z,10.67
2019-02-02T02:31:50.726Z,11.00
2019-02-02T02:33:54.436Z,7.83
2019-02-02T02:35:59.151Z,11.00
2019-02-02T02:38:03.556Z,9.29
2019-02-02T02:40:11.175Z,8.50
2019-02-02T02:42:18.386Z,8.67
2019-02-02T02:44:25.459Z,9.00
2019-02-02T02:46:31.666Z,10.83
2019-02-02T02:48:34.568Z,8.00
2019-02-02T02:50:37.610Z,7.67
2019-02-02T02:52:42.343Z,13.14
2019-02-02T02:54:45.383Z,10.00
2019-02-02T02:56:52.450Z,8.67
2019-02-02T02:58:58.849Z,11.33
2019-02-02T03:01:03.054Z,11.67
2019-02-02T03:03:10.929Z,8.80
2019-02-02T03:05:19.470Z,11.71
2019-02-02T03:07:27.802Z,11.71
2019-02-02T03:09:31.815Z,9.50
2019-02-02T03:11:39.775Z,10.71
2019-02-02T03:13:44.294Z,12.00
2019-02-02T03:15:49.007Z,10.33
2019-02-02T03:17:53.704Z,11.29
2019-02-02T03:20:01.864Z,10.14
2019-02-02T03:22:06.559Z,12.00
2019-02-02T03:24:11.282Z,11.86
2019-02-02T03:26:15.955Z,10.00
2019-02-02T03:28:19.919Z,9.83
2019-02-02T03:30:24.659Z,10.29
2019-02-02T03:32:33.372Z,14.18
2019-02-02T03:34:37.883Z,11.00
2019-02-02T03:36:41.548Z,9.00
2019-02-02T03:38:45.200Z,8.50
2019-02-02T03:40:52.528Z,9.33
2019-02-02T03:42:58.844Z,10.33
2019-02-02T03:45:01.653Z,7.00
2019-02-02T03:47:08.933Z,12.33
2019-02-02T03:49:12.683Z,10.00
2019-02-02T03:51:17.586Z,10.17
2019-02-02T03:53:22.117Z,12.86
2019-02-02T03:55:26.634Z,11.29
2019-02-02T03:57:31.224Z,10.00
2019-02-02T03:59:36.582Z,8.40
2019-02-02T04:01:40.231Z,9.00
2019-02-02T04:03:44.075Z,7.00
2019-02-02T04:05:51.259Z,9.44
2019-02-02T04:07:57.590Z,11.50
2019-02-02T04:10:02.080Z,9.50
2019-02-02T04:12:08.239Z,10.00
2019-02-02T04:14:11.930Z,7.67
2019-02-02T04:16:15.634Z,9.00
2019-02-02T04:18:18.496Z,8.00
2019-02-02T04:20:25.518Z,9.67
2019-02-02T04:22:35.596Z,9.67
2019-02-02T04:24:40.506Z,7.50
2019-02-02T04:26:47.705Z,10.17
2019-02-02T04:28:54.745Z,9.78
2019-02-02T04:30:58.447Z,11.17
2019-02-02T04:33:02.060Z,9.00
2019-02-02T04:35:09.505Z,8.89
2019-02-02T04:37:12.912Z,7.00
2019-02-02T04:39:19.947Z,8.83
2019-02-02T04:41:26.942Z,8.67
2019-02-02T04:43:31.494Z,10.29
2019-02-02T04:45:36.971Z,9.50
2019-02-02T04:47:44.178Z,10.29
2019-02-02T04:49:49.467Z,11.29
2019-02-02T04:51:54.146Z,11.86
2019-02-02T04:54:01.222Z,14.00
2019-02-02T04:56:09.178Z,14.86
2019-02-02T04:58:17.259Z,13.00
2019-02-02T05:00:25.838Z,12.00
2019-02-02T05:02:30.590Z,13.00
2019-02-02T05:04:38.211Z,10.43
2019-02-02T05:06:46.255Z,12.00
2019-02-02T05:08:53.311Z,11.57
2019-02-02T05:11:02.136Z,12.45
2019-02-02T05:13:09.264Z,11.00
2019-02-02T05:15:15.527Z,9.50
2019-02-02T05:17:20.067Z,13.00
2019-02-02T05:19:29.534Z,15.58
2019-02-02T05:21:34.262Z,16.29
2019-02-02T05:23:41.371Z,24.00
2019-02-02T05:25:46.999Z,17.29
2019-02-02T05:27:55.728Z,15.00
2019-02-02T05:30:02.130Z,20.37
2019-02-02T05:32:08.476Z,14.29
2019-02-02T05:34:12.272Z,13.00
2019-02-02T05:36:20.167Z,13.00
2019-02-02T05:38:25.710Z,15.29
2019-02-02T05:40:30.340Z,13.29
2019-02-02T05:42:34.282Z,9.00
2019-02-02T05:44:38.866Z,12.00
2019-02-02T05:46:46.794Z,12.71
2019-02-02T05:48:50.603Z,10.50
2019-02-02T05:50:57.617Z,8.78
2019-02-02T05:53:01.408Z,11.00
2019-02-02T05:55:05.806Z,8.00
2019-02-02T05:57:11.466Z,8.60
2019-02-02T05:59:19.484Z,12.57
2019-02-02T06:01:23.994Z,9.71
2019-02-02T06:03:32.046Z,11.43
2019-02-02T06:05:40.103Z,12.43
2019-02-02T06:07:48.855Z,12.45
2019-02-02T06:09:56.843Z,12.29
2019-02-02T06:12:01.636Z,13.17
2019-02-02T06:14:06.319Z,11.71
2019-02-02T06:16:14.074Z,13.71
2019-02-02T06:18:22.860Z,12.91
2019-02-02T06:20:28.399Z,14.00
2019-02-02T06:22:33.895Z,14.57
2019-02-02T06:24:41.894Z,15.14
2019-02-02T06:26:49.906Z,13.00
2019-02-02T06:28:52.893Z,16.00
2019-02-02T06:31:00.248Z,20.25
2019-02-02T06:33:04.910Z,17.71
2019-02-02T06:35:11.778Z,17.00
2019-02-02T06:37:16.687Z,16.33
2019-02-02T06:39:21.367Z,16.67
2019-02-02T06:41:26.955Z,12.57
2019-02-02T06:43:35.116Z,15.71
2019-02-02T06:45:38.862Z,37.50
2019-02-02T06:47:42.806Z,24.00
2019-02-02T06:49:46.666Z,23.00
2019-02-02T06:51:52.491Z,24.25
2019-02-02T06:53:57.963Z,33.50
2019-02-02T06:56:06.150Z,45.63
2019-02-02T06:58:13.479Z,23.38
2019-02-02T07:00:20.123Z,21.62
2019-02-02T07:02:23.662Z,14.17
2019-02-02T07:04:26.687Z,19.00
2019-02-02T07:06:32.310Z,26.87
2019-02-02T07:08:37.093Z,16.00
2019-02-02T07:10:41.143Z,23.40
2019-02-02T07:12:46.063Z,21.17
2019-02-02T07:14:52.430Z,18.00
2019-02-02T07:16:57.197Z,18.00
2019-02-02T07:19:02.761Z,25.12
2019-02-02T07:21:06.611Z,21.50
2019-02-02T07:23:13.921Z,23.25
2019-02-02T07:25:19.571Z,19.75
2019-02-02T07:27:25.154Z,23.75
2019-02-02T07:29:29.042Z,14.17
2019-02-02T07:31:33.725Z,21.71
2019-02-02T07:33:40.125Z,18.00
2019-02-02T07:35:44.817Z,22.29
2019-02-02T07:37:50.476Z,24.37
2019-02-02T07:39:53.542Z,19.00
2019-02-02T07:41:58.960Z,28.50
2019-02-02T07:44:02.013Z,21.00
2019-02-02T07:46:14.706Z,27.00
2019-02-02T07:48:13.925Z,18.00
2019-02-02T07:50:19.594Z,14.00
2019-02-02T07:52:24.093Z,11.29
2019-02-02T07:54:33.182Z,12.00
2019-02-02T07:56:39.155Z,15.13
2019-02-02T07:58:46.265Z,8.00
2019-02-02T08:00:50.234Z,9.33
2019-02-02T08:02:57.306Z,8.00
2019-02-02T08:05:05.458Z,11.43
2019-02-02T08:07:13.163Z,12.71
2019-02-02T08:09:17.885Z,11.17
2019-02-02T08:11:23.814Z,13.71
2019-02-02T08:13:31.940Z,13.00
2019-02-02T08:15:36.892Z,10.00
2019-02-02T08:17:42.744Z,12.00
2019-02-02T08:19:50.069Z,9.17
2019-02-02T08:21:55.809Z,10.86
2019-02-02T08:24:01.565Z,13.00
2019-02-02T08:26:07.160Z,12.86
2019-02-02T08:28:15.336Z,11.43
2019-02-02T08:30:29.878Z,12.33
2019-02-02T08:32:35.882Z,22.13
2019-02-02T08:34:40.789Z,19.43
2019-02-02T08:36:46.459Z,16.43
2019-02-02T08:38:51.391Z,18.86
2019-02-02T08:40:57.914Z,19.14
2019-02-02T08:43:02.872Z,20.71
2019-02-02T08:45:08.712Z,25.86
2019-02-02T08:47:17.583Z,18.09
2019-02-02T08:49:21.758Z,16.60
2019-02-02T08:51:26.802Z,13.83
2019-02-02T08:53:33.428Z,19.75
2019-02-02T08:55:36.854Z,22.67
2019-02-02T08:57:42.645Z,23.12
2019-02-02T08:59:48.462Z,26.25
2019-02-02T09:01:54.171Z,24.63
2019-02-02T09:04:01.639Z,21.50
2019-02-02T09:06:06.520Z,19.00
2019-02-02T09:08:12.343Z,17.71
2019-02-02T09:10:18.896Z,11.67
2019-02-02T09:12:24.068Z,32.29
2019-02-02T09:14:31.487Z,20.86
2019-02-02T09:16:35.657Z,26.00
2019-02-02T09:18:38.968Z,29.00
2019-02-02T09:20:45.789Z,46.63
2019-02-02T09:23:02.660Z,20.71
2019-02-02T09:24:57.887Z,21.62
2019-02-02T09:27:02.936Z,18.43
2019-02-02T09:29:10.560Z,27.13
2019-02-02T09:31:19.239Z,18.73
2019-02-02T09:33:24.248Z,17.43
2019-02-02T09:35:27.591Z,34.00
2019-02-02T09:37:34.754Z,15.11
2019-02-02T09:39:37.723Z,16.50
2019-02-02T09:41:42.675Z,22.83
2019-02-02T09:43:47.624Z,20.57
2019-02-02T09:45:52.621Z,19.00
2019-02-02T09:47:58.383Z,19.29
2019-02-02T09:50:05.682Z,16.29
2019-02-02T09:52:11.301Z,21.12
2019-02-02T09:54:26.328Z,20.25
2019-02-02T09:56:25.975Z,21.87
2019-02-02T09:58:30.823Z,20.14
2019-02-02T10:00:36.623Z,16.57
2019-02-02T10:02:45.767Z,18.87
2019-02-02T10:04:50.517Z,19.29
2019-02-02T10:06:54.562Z,19.60
2019-02-02T10:09:01.236Z,17.00
2019-02-02T10:11:09.411Z,24.87
2019-02-02T10:13:15.066Z,25.00
2019-02-02T10:15:19.954Z,21.29
2019-02-02T10:17:23.082Z,20.50
2019-02-02T10:19:27.855Z,17.71
2019-02-02T10:21:35.310Z,20.14
2019-02-02T10:23:42.794Z,25.25
2019-02-02T10:25:47.583Z,18.43
2019-02-02T10:27:54.217Z,20.00
2019-02-02T10:29:59.113Z,15.17
2019-02-02T10:32:04.167Z,16.86
2019-02-02T10:34:12.071Z,21.29
2019-02-02T10:36:15.750Z,19.29
2019-02-02T10:38:20.704Z,20.29
2019-02-02T10:40:25.548Z,20.29
2019-02-02T10:42:31.938Z,18.00
2019-02-02T10:44:36.859Z,16.29
2019-02-02T10:46:41.750Z,16.71
2019-02-02T10:48:48.320Z,17.75
2019-02-02T10:50:53.255Z,14.86
2019-02-02T10:52:58.127Z,15.33
2019-02-02T10:55:09.202Z,12.14
2019-02-02T10:57:15.166Z,17.00
2019-02-02T10:59:19.976Z,19.71
2019-02-02T11:01:28.804Z,19.12
2019-02-02T11:03:34.499Z,29.87
2019-02-02T11:05:40.019Z,13.43
2019-02-02T11:07:44.752Z,14.67
2019-02-02T11:09:50.224Z,23.62
2019-02-02T11:11:58.239Z,13.29
2019-02-02T11:14:06.586Z,14.00
2019-02-02T11:16:16.167Z,16.33
2019-02-02T11:18:21.403Z,14.50
2019-02-02T11:20:31.479Z,13.86
2019-02-02T11:22:39.673Z,14.29
2019-02-02T11:24:48.463Z,14.20
2019-02-02T11:26:54.663Z,18.87
2019-02-02T11:29:00.324Z,16.00
2019-02-02T11:31:06.107Z,13.00
2019-02-02T11:33:14.001Z,14.29
2019-02-02T11:35:22.059Z,15.29
2019-02-02T11:37:27.596Z,11.71
2019-02-02T11:39:33.944Z,14.50
2019-02-02T11:41:39.472Z,13.57
2019-02-02T11:43:45.798Z,16.75
2019-02-02T11:45:51.403Z,12.29
2019-02-02T11:47:56.762Z,12.29
2019-02-02T11:50:02.903Z,14.71
2019-02-02T11:52:08.822Z,14.29
2019-02-02T11:54:17.754Z,16.00
2019-02-02T11:56:23.287Z,14.00
2019-02-02T11:58:28.788Z,13.29
2019-02-02T12:00:35.880Z,16.86
2019-02-02T12:02:49.029Z,14.50
2019-02-02T12:04:48.956Z,15.00
2019-02-02T12:06:57.073Z,14.00
2019-02-02T12:09:01.828Z,17.71
2019-02-02T12:11:05.810Z,19.00
2019-02-02T12:13:15.679Z,15.27
2019-02-02T12:15:20.591Z,18.33
2019-02-02T12:17:27.071Z,18.00
2019-02-02T12:19:33.347Z,16.50
2019-02-02T12:21:37.238Z,16.60
2019-02-02T12:23:44.474Z,18.12
2019-02-02T12:25:53.077Z,20.00
2019-02-02T12:27:57.387Z,17.57
2019-02-02T12:30:01.285Z,17.75
2019-02-02T12:32:06.835Z,17.25
2019-02-02T12:34:09.880Z,21.50
2019-02-02T12:36:14.642Z,19.86
2019-02-02T12:38:17.699Z,22.33
2019-02-02T12:40:22.482Z,21.00
2019-02-02T12:42:27.477Z,22.29
2019-02-02T12:44:32.442Z,23.71
2019-02-02T12:46:35.838Z,22.00
2019-02-02T12:48:42.711Z,21.71
2019-02-02T12:50:48.457Z,25.25
2019-02-02T12:52:53.274Z,18.43
2019-02-02T12:54:57.219Z,23.33
2019-02-02T12:57:04.893Z,25.37
2019-02-02T12:59:10.545Z,21.25
2019-02-02T13:01:15.431Z,20.00
2019-02-02T13:03:20.350Z,18.57
2019-02-02T13:05:24.314Z,28.00
2019-02-02T13:07:31.707Z,22.50
2019-02-02T13:09:35.771Z,15.00
2019-02-02T13:11:41.549Z,19.12
2019-02-02T13:13:45.693Z,23.50
2019-02-02T13:15:50.744Z,21.00
2019-02-02T13:17:56.610Z,23.50
2019-02-02T13:20:01.516Z,18.86
2019-02-02T13:22:04.759Z,22.50
2019-02-02T13:24:09.470Z,17.29
2019-02-02T13:26:16.932Z,22.13
2019-02-02T13:28:21.775Z,18.86
2019-02-02T13:30:31.047Z,16.71
2019-02-02T13:32:35.952Z,20.43
2019-02-02T13:34:41.625Z,25.50
2019-02-02T13:36:47.214Z,22.00
2019-02-02T13:38:50.492Z,22.00
2019-02-02T13:40:55.570Z,23.14
2019-02-02T13:42:58.746Z,25.00
2019-02-02T13:45:07.024Z,21.00
2019-02-02T13:47:12.528Z,35.13
2019-02-02T13:49:17.703Z,31.29
2019-02-02T13:51:21.011Z,19.33
2019-02-02T13:53:24.483Z,18.00
2019-02-02T13:55:29.231Z,19.57
2019-02-02T13:57:32.543Z,22.00
2019-02-02T13:59:38.298Z,14.43
2019-02-02T14:01:44.489Z,16.62
2019-02-02T14:03:50.813Z,13.75
2019-02-02T14:05:58.982Z,15.86
2019-02-02T14:08:07.626Z,16.50
2019-02-02T14:10:15.389Z,18.00
2019-02-02T14:12:20.343Z,34.29
2019-02-02T14:14:25.025Z,21.00
2019-02-02T14:16:29.647Z,19.29
2019-02-02T14:18:35.310Z,15.71
2019-02-02T14:20:40.794Z,21.12
2019-02-02T14:22:45.642Z,21.86
2019-02-02T14:24:50.138Z,23.71
2019-02-02T14:26:53.923Z,25.00
2019-02-02T14:28:57.091Z,21.00
2019-02-02T14:31:00.255Z,32.33
2019-02-02T14:33:13.794Z,27.00
2019-02-02T14:35:18.078Z,30.00
2019-02-02T14:37:26.044Z,33.63
2019-02-02T14:39:30.006Z,27.75
2019-02-02T14:41:36.486Z,33.78
2019-02-02T14:43:43.832Z,26.57
2019-02-02T14:45:47.699Z,31.00
2019-02-02T14:47:51.804Z,30.00
2019-02-02T14:49:57.151Z,32.88
2019-02-02T14:52:03.850Z,43.89
2019-02-02T14:54:12.509Z,31.25
2019-02-02T14:56:17.928Z,32.13
2019-02-02T14:58:23.616Z,25.37
2019-02-02T15:00:29.646Z,25.12
2019-02-02T15:02:33.925Z,25.25
2019-02-02T15:04:39.578Z,19.25
2019-02-02T15:06:45.891Z,19.37
2019-02-02T15:08:55.724Z,30.55
2019-02-02T15:11:01.328Z,36.13
2019-02-02T15:13:10.207Z,62.33
2019-02-02T15:15:15.012Z,34.33
2019-02-02T15:17:23.045Z,32.63
2019-02-02T15:19:28.729Z,41.25
2019-02-02T15:21:32.718Z,35.00
2019-02-02T15:23:41.028Z,35.50
2019-02-02T15:25:44.279Z,29.00
2019-02-02T15:27:47.584Z,26.00
2019-02-02T15:29:55.676Z,30.88
2019-02-02T15:31:58.976Z,32.67
2019-02-02T15:34:03.308Z,31.50
2019-02-02T15:36:09.009Z,35.38
2019-02-02T15:38:13.075Z,38.50
2019-02-02T15:40:21.710Z,37.50
2019-02-02T15:42:25.556Z,32.50
2019-02-02T15:44:33.306Z,37.25
2019-02-02T15:46:48.620Z,46.25
2019-02-02T15:48:49.969Z,34.67
2019-02-02T15:50:59.863Z,45.27
2019-02-02T15:53:08.026Z,36.38
2019-02-02T15:55:13.479Z,45.25
2019-02-02T15:57:21.971Z,35.63
2019-02-02T15:59:30.128Z,37.25
2019-02-02T16:01:34.142Z,38.25
2019-02-02T16:03:49.731Z,48.00
2019-02-02T16:05:48.923Z,47.50
2019-02-02T16:07:58.187Z,46.00
2019-02-02T16:10:03.515Z,52.50
2019-02-02T16:12:07.857Z,50.60
2019-02-02T16:14:15.979Z,43.38
2019-02-02T16:16:24.070Z,44.25
2019-02-02T16:18:32.154Z,38.75
2019-02-02T16:20:42.496Z,41.33
2019-02-02T16:22:49.000Z,46.37
2019-02-02T16:24:55.341Z,44.50
2019-02-02T16:27:02.562Z,41.67
2019-02-02T16:29:08.015Z,39.50
2019-02-02T16:31:16.224Z,42.00
2019-02-02T16:33:20.213Z,41.50
2019-02-02T16:35:28.375Z,49.13
2019-02-02T16:37:38.542Z,79.67
2019-02-02T16:39:45.408Z,52.13
2019-02-02T16:41:49.487Z,36.25
2019-02-02T16:43:53.688Z,60.00
2019-02-02T16:45:57.863Z,62.75
2019-02-02T16:48:01.965Z,46.50
2019-02-02T16:50:07.391Z,53.75
2019-02-02T16:52:16.724Z,54.00
2019-02-02T16:54:27.396Z,41.08
2019-02-02T16:56:35.568Z,52.00
2019-02-02T16:58:42.777Z,44.56
2019-02-02T17:00:51.920Z,49.44
2019-02-02T17:03:00.078Z,43.00
2019-02-02T17:05:07.894Z,41.13
2019-02-02T17:07:12.139Z,43.00
2019-02-02T17:09:20.469Z,42.13
2019-02-02T17:11:27.075Z,42.13
2019-02-02T17:13:35.078Z,43.13
2019-02-02T17:15:43.305Z,42.62
2019-02-02T17:17:51.447Z,42.38
2019-02-02T17:19:55.397Z,40.00
2019-02-02T17:21:59.246Z,50.00
2019-02-02T17:24:07.539Z,46.00
2019-02-02T17:26:15.874Z,67.00
2019-02-02T17:28:24.056Z,56.00
2019-02-02T17:30:32.328Z,50.25
2019-02-02T17:32:39.486Z,51.44
2019-02-02T17:34:45.940Z,47.00
2019-02-02T17:36:54.120Z,42.38
2019-02-02T17:39:02.296Z,40.38
2019-02-02T17:41:08.839Z,31.25
2019-02-02T17:43:16.903Z,26.00
2019-02-02T17:45:21.219Z,28.50
2019-02-02T17:47:31.357Z,25.64
2019-02-02T17:49:40.229Z,23.71
2019-02-02T17:51:45.662Z,18.00
2019-02-02T17:53:51.508Z,21.00
2019-02-02T17:55:57.810Z,18.00
2019-02-02T17:58:02.641Z,19.00
2019-02-02T18:00:17.937Z,20.43
2019-02-02T18:02:23.806Z,23.38
2019-02-02T18:04:39.298Z,21.14
2019-02-02T18:06:39.103Z,18.45
2019-02-02T18:08:43.919Z,21.00
2019-02-02T18:10:49.410Z,19.75
2019-02-02T18:12:55.182Z,20.25
2019-02-02T18:15:01.666Z,17.50
2019-02-02T18:17:07.487Z,22.75
2019-02-02T18:19:14.342Z,16.86
2019-02-02T18:21:21.563Z,21.44
2019-02-02T18:23:30.806Z,19.18
2019-02-02T18:25:35.755Z,17.57
2019-02-02T18:27:40.991Z,27.86
2019-02-02T18:29:47.432Z,22.14
2019-02-02T18:31:50.820Z,20.00
2019-02-02T18:33:57.807Z,20.75
2019-02-02T18:36:02.768Z,17.29
2019-02-02T18:38:09.294Z,16.75
2019-02-02T18:40:19.476Z,20.00
2019-02-02T18:42:25.887Z,20.00
2019-02-02T18:44:31.576Z,15.29
2019-02-02T18:46:36.607Z,23.00
2019-02-02T18:48:42.967Z,20.29
2019-02-02T18:50:47.916Z,23.00
2019-02-02T18:52:54.466Z,17.43
2019-02-02T18:54:59.605Z,22.71
2019-02-02T18:57:05.571Z,17.71
2019-02-02T18:59:11.499Z,28.00
2019-02-02T19:01:14.924Z,15.75
2019-02-02T19:03:22.812Z,14.71
2019-02-02T19:05:29.426Z,21.00
2019-02-02T19:07:34.809Z,18.14
2019-02-02T19:09:41.667Z,22.71
2019-02-02T19:11:45.267Z,26.25
2019-02-02T19:13:50.382Z,18.14
2019-02-02T19:15:53.699Z,26.50
2019-02-02T19:18:03.257Z,40.75
2019-02-02T19:20:09.491Z,15.57
2019-02-02T19:22:16.169Z,21.62
2019-02-02T19:24:24.184Z,24.43
2019-02-02T19:26:27.521Z,22.50
2019-02-02T19:28:39.467Z,18.75
2019-02-02T19:30:37.727Z,22.43
2019-02-02T19:32:45.382Z,20.75
2019-02-02T19:34:51.327Z,29.50
2019-02-02T19:36:57.229Z,20.62
2019-02-02T19:39:02.200Z,17.71
2019-02-02T19:41:09.812Z,18.14
2019-02-02T19:43:14.794Z,20.29
2019-02-02T19:45:21.258Z,18.00
2019-02-02T19:47:28.089Z,18.00
2019-02-02T19:49:33.371Z,19.43
2019-02-02T19:51:38.981Z,24.50
2019-02-02T19:53:44.206Z,21.71
2019-02-02T19:55:49.511Z,23.29
2019-02-02T19:57:54.641Z,22.57
2019-02-02T19:59:58.021Z,24.00
2019-02-02T20:02:05.488Z,20.25
2019-02-02T20:04:08.750Z,26.00
2019-02-02T20:06:13.637Z,20.29
2019-02-02T20:08:19.333Z,21.37
2019-02-02T20:10:25.980Z,17.14
2019-02-02T20:12:30.622Z,19.29
2019-02-02T20:14:37.206Z,19.50
2019-02-02T20:16:41.006Z,15.00
2019-02-02T20:18:44.148Z,22.00
2019-02-02T20:20:48.966Z,19.00
2019-02-02T20:22:52.404Z,19.50
2019-02-02T20:24:57.973Z,16.43
2019-02-02T20:27:01.108Z,22.75
2019-02-02T20:29:05.868Z,16.00
2019-02-02T20:31:10.764Z,18.57
2019-02-02T20:33:15.646Z,18.57
2019-02-02T20:35:21.232Z,24.25
2019-02-02T20:37:24.179Z,24.00
2019-02-02T20:39:28.114Z,21.75
2019-02-02T20:41:33.790Z,22.37
2019-02-02T20:43:43.608Z,24.18
2019-02-02T20:45:49.344Z,27.62
2019-02-02T20:47:54.315Z,22.00
2019-02-02T20:49:57.526Z,28.00
2019-02-02T20:52:01.542Z,25.00
2019-02-02T20:54:06.998Z,24.25
2019-02-02T20:56:12.662Z,24.87
2019-02-02T20:58:17.606Z,22.57
2019-02-02T21:00:26.784Z,19.71
2019-02-02T21:02:33.203Z,22.29
2019-02-02T21:04:36.404Z,21.25
2019-02-02T21:06:42.015Z,29.12
2019-02-02T21:08:48.470Z,22.87
2019-02-02T21:10:54.065Z,17.29
2019-02-02T21:12:57.254Z,19.67
2019-02-02T21:15:02.082Z,20.71
2019-02-02T21:17:12.047Z,19.12
2019-02-02T21:19:15.287Z,19.00
2019-02-02T21:21:20.230Z,26.00
2019-02-02T21:23:27.847Z,22.37
2019-02-02T21:25:34.299Z,19.29
2019-02-02T21:27:40.015Z,24.37
2019-02-02T21:29:43.362Z,31.33
2019-02-02T21:31:46.760Z,25.00
2019-02-02T21:33:50.655Z,25.25
2019-02-02T21:36:03.669Z,27.67
2019-02-02T21:38:00.450Z,19.29
2019-02-02T21:40:10.140Z,23.67
2019-02-02T21:42:15.934Z,26.62
2019-02-02T21:44:21.016Z,21.71
2019-02-02T21:46:26.782Z,28.75
2019-02-02T21:48:30.131Z,23.00
2019-02-02T21:50:36.895Z,20.37
2019-02-02T21:52:42.696Z,26.50
2019-02-02T21:54:46.711Z,17.00
2019-02-02T21:56:51.819Z,22.29
2019-02-02T21:58:55.254Z,19.75
2019-02-02T22:01:02.196Z,20.43
2019-02-02T22:03:11.327Z,42.90
2019-02-02T22:05:14.888Z,20.75
2019-02-02T22:07:20.094Z,22.14
2019-02-02T22:09:25.242Z,16.29
2019-02-02T22:11:30.323Z,20.14
2019-02-02T22:13:33.798Z,21.00
2019-02-02T22:15:42.282Z,15.29
2019-02-02T22:17:47.526Z,16.71
2019-02-02T22:19:54.060Z,18.75
2019-02-02T22:22:00.030Z,21.50
2019-02-02T22:24:05.340Z,21.86
2019-02-02T22:26:10.554Z,31.57
2019-02-02T22:28:14.795Z,25.25
2019-02-02T22:30:23.515Z,23.86
2019-02-02T22:32:28.618Z,20.00
2019-02-02T22:34:32.047Z,21.00
2019-02-02T22:36:36.279Z,36.50
2019-02-02T22:38:43.892Z,27.00
2019-02-02T22:40:48.027Z,39.50
2019-02-02T22:42:55.106Z,38.38
2019-02-02T22:45:00.651Z,28.86
2019-02-02T22:47:04.872Z,39.25
2019-02-02T22:49:09.096Z,31.00
2019-02-02T22:51:12.619Z,36.00
2019-02-02T22:53:16.843Z,38.25
2019-02-02T22:55:21.172Z,35.00
2019-02-02T22:57:29.003Z,42.88
2019-02-02T22:59:35.062Z,49.63
2019-02-02T23:01:41.124Z,36.38
2019-02-02T23:03:48.614Z,52.00
2019-02-02T23:05:59.348Z,36.13
2019-02-02T23:08:07.987Z,37.38
2019-02-02T23:10:19.138Z,35.67
2019-02-02T23:12:24.227Z,46.00
2019-02-02T23:14:53.385Z,41.80
2019-02-02T23:16:57.347Z,36.50
2019-02-02T23:19:05.826Z,39.75
2019-02-02T23:21:10.167Z,39.25
2019-02-02T23:23:18.724Z,47.13
2019-02-02T23:25:23.140Z,48.25
2019-02-02T23:27:25.982Z,42.00
2019-02-02T23:29:30.330Z,47.50
2019-02-02T23:31:35.689Z,44.63
2019-02-02T23:33:42.551Z,53.13
2019-02-02T23:35:50.988Z,46.37
2019-02-02T23:37:59.313Z,49.50
2019-02-02T23:40:06.497Z,47.50
2019-02-02T23:42:09.988Z,45.33
2019-02-02T23:44:18.282Z,48.75
2019-02-02T23:46:22.357Z,61.25
2019-02-02T23:48:29.247Z,61.88
2019-02-02T23:50:37.574Z,66.62
2019-02-02T23:52:45.192Z,71.11
2019-02-02T23:54:51.935Z,66.12
2019-02-02T23:57:02.084Z,63.55
2019-02-02T23:59:10.546Z,60.00
